Huvudsida
METAR-TAF:

METAR-TAF

Flygplatser :

Benbecula Airport

Benbecula, Skottland

latitud: 57-28N, longitud: 007-22W, höjd: 6 m

Aktuellt väderrapport

Denna rapport gjordes för 34 minuter sedan, klockan 17:50 UTC
Vind 10 kt från väst/nordväst
Temperatur 6°C
Fuktighet 81%
Tryck 973 hPa
Sikt 10 km eller mer

METAR: EGPL 081750Z AUTO 30010KT 9999 FEW005/// BKN021/// BKN036/// 06/03 Q0973

Tid: 18:24 (18:24 UTC)

Väderprognos

Denna rapport gjordes för 4 timmar och 29 minuter sedan, klockan 13:55 UTC
Prognos gäller från 08 kl. 15 UTC till 08 kl. 18 UTC
Vind 22 kt från väst i byarna ända upp till 34 kt
Sikt 10 km eller mer
Spridda moln på en höjd av 1800 ft
Blir
från 08 kl. 15 UTC till 08 kl. 18 UTC
Vind 15 kt från nordväst
Temporärt
från 08 kl. 15 UTC till 08 kl. 18 UTC
Sikt: 6000 m
Brutna moln på en höjd av 1200 ft
regnskurar

TAF: EGPL 081355Z 0815/0818 28022G34KT 9999 SCT018 BECMG 0815/0818 31015KT TEMPO 0815/0818 6000 SHRA BKN012

Aktuella väderrapporter och prognoser från 4000 flygplatser (METAR- och TAF-rapporter).

De tillgängliga stationerna syns som gula och röda prickar på kartan.

För musen över prickarna för att se namnen på stationerna.

Klicka sedan för att få väderrapporter och prognoser.

För att ändra kartan: Klicka på de gröna knapparna med ett svart kors på för att zooma in; den gröna knappen med ett streck på för att zooma ut; eller på de gröna pilarna för angränsande kartor.


METAR-TAF: